sensor_id;sensor_type;location;lat;lon;timestamp;pressure;altitude;pressure_sealevel;temperature;humidity
39823;BME280;25499;53.958;10.970;2022-08-03T05:16:28;101327.72;;;19.24;72.26
39823;BME280;25499;53.958;10.970;2022-08-03T05:18:54;101332.38;;;19.46;71.69
39823;BME280;25499;53.958;10.970;2022-08-03T05:21:19;101324.78;;;19.63;71.13
39823;BME280;25499;53.958;10.970;2022-08-03T05:23:44;101322.44;;;19.54;71.10
39823;BME280;25499;53.958;10.970;2022-08-03T05:26:10;101326.09;;;19.78;70.44
39823;BME280;25499;53.958;10.970;2022-08-03T05:28:38;101324.59;;;19.98;70.55
39823;BME280;25499;53.958;10.970;2022-08-03T05:31:04;101322.44;;;20.09;69.85
39823;BME280;25499;53.958;10.970;2022-08-03T05:33:29;101333.19;;;20.29;69.68
39823;BME280;25499;53.958;10.970;2022-08-03T05:35:55;101329.22;;;20.43;68.78
39823;BME280;25499;53.958;10.970;2022-08-03T05:38:20;101325.31;;;20.53;68.92
39823;BME280;25499;53.958;10.970;2022-08-03T05:40:45;101331.09;;;20.66;68.34
39823;BME280;25499;53.958;10.970;2022-08-03T05:43:11;101316.81;;;20.70;68.16
39823;BME280;25499;53.958;10.970;2022-08-03T05:45:36;101317.22;;;20.83;68.12
39823;BME280;25499;53.958;10.970;2022-08-03T05:48:05;101326.16;;;21.04;67.77
39823;BME280;25499;53.958;10.970;2022-08-03T05:50:31;101322.34;;;21.11;68.45
39823;BME280;25499;53.958;10.970;2022-08-03T05:52:56;101321.00;;;21.23;67.40
39823;BME280;25499;53.958;10.970;2022-08-03T05:55:22;101317.91;;;21.35;66.77
39823;BME280;25499;53.958;10.970;2022-08-03T05:57:47;101311.28;;;21.47;66.71
39823;BME280;25499;53.958;10.970;2022-08-03T06:00:13;101317.94;;;21.57;66.20
39823;BME280;25499;53.958;10.970;2022-08-03T06:02:39;101309.72;;;21.64;66.73
39823;BME280;25499;53.958;10.970;2022-08-03T06:05:05;101311.63;;;21.82;66.19
39823;BME280;25499;53.958;10.970;2022-08-03T06:07:30;101312.50;;;21.83;65.79
39823;BME280;25499;53.958;10.970;2022-08-03T06:09:56;101316.03;;;22.04;65.64
39823;BME280;25499;53.958;10.970;2022-08-03T06:12:21;101327.78;;;21.98;65.23
39823;BME280;25499;53.958;10.970;2022-08-03T06:14:47;101326.13;;;22.16;65.13
39823;BME280;25499;53.958;10.970;2022-08-03T06:17:12;101326.09;;;22.38;65.59
39823;BME280;25499;53.958;10.970;2022-08-03T06:19:38;101334.34;;;22.52;65.92
39823;BME280;25499;53.958;10.970;2022-08-03T06:22:03;101327.47;;;22.67;64.26
39823;BME280;25499;53.958;10.970;2022-08-03T06:24:29;101329.59;;;22.80;65.83
39823;BME280;25499;53.958;10.970;2022-08-03T06:26:54;101328.09;;;22.93;64.27
39823;BME280;25499;53.958;10.970;2022-08-03T06:29:20;101324.78;;;23.08;63.72
39823;BME280;25499;53.958;10.970;2022-08-03T06:31:45;101315.00;;;23.09;63.87
39823;BME280;25499;53.958;10.970;2022-08-03T06:34:10;101327.78;;;23.20;63.45
39823;BME280;25499;53.958;10.970;2022-08-03T06:36:36;101324.41;;;23.16;62.81
39823;BME280;25499;53.958;10.970;2022-08-03T06:39:02;101329.13;;;23.28;62.95
39823;BME280;25499;53.958;10.970;2022-08-03T06:41:28;101321.31;;;23.44;62.05
39823;BME280;25499;53.958;10.970;2022-08-03T06:43:53;101330.59;;;23.72;63.05
39823;BME280;25499;53.958;10.970;2022-08-03T06:46:19;101321.38;;;23.79;62.05
39823;BME280;25499;53.958;10.970;2022-08-03T06:48:44;101314.06;;;23.65;60.43
39823;BME280;25499;53.958;10.970;2022-08-03T06:51:10;101317.84;;;23.61;61.36
39823;BME280;25499;53.958;10.970;2022-08-03T06:53:35;101326.84;;;23.76;61.63
39823;BME280;25499;53.958;10.970;2022-08-03T06:56:01;101321.19;;;24.01;60.42
39823;BME280;25499;53.958;10.970;2022-08-03T06:58:26;101319.97;;;24.09;60.72
39823;BME280;25499;53.958;10.970;2022-08-03T07:00:52;101315.34;;;24.12;60.27
39823;BME280;25499;53.958;10.970;2022-08-03T07:03:17;101317.84;;;24.15;60.22
39823;BME280;25499;53.958;10.970;2022-08-03T07:05:43;101314.47;;;24.29;60.03
39823;BME280;25499;53.958;10.970;2022-08-03T07:08:11;101317.75;;;24.34;59.82
39823;BME280;25499;53.958;10.970;2022-08-03T07:10:36;101315.25;;;24.31;60.32
39823;BME280;25499;53.958;10.970;2022-08-03T07:13:02;101314.84;;;24.56;59.71
39823;BME280;25499;53.958;10.970;2022-08-03T07:15:27;101324.78;;;24.86;59.56
39823;BME280;25499;53.958;10.970;2022-08-03T07:17:52;101322.25;;;25.17;59.00
39823;BME280;25499;53.958;10.970;2022-08-03T07:20:18;101324.97;;;25.33;57.95
39823;BME280;25499;53.958;10.970;2022-08-03T07:22:44;101329.66;;;25.59;57.37
39823;BME280;25499;53.958;10.970;2022-08-03T07:25:09;101316.75;;;25.67;56.63
39823;BME280;25499;53.958;10.970;2022-08-03T07:27:35;101309.31;;;25.58;55.65
39823;BME280;25499;53.958;10.970;2022-08-03T07:30:01;101320.53;;;25.79;56.01
39823;BME280;25499;53.958;10.970;2022-08-03T07:32:26;101320.31;;;26.14;55.87
39823;BME280;25499;53.958;10.970;2022-08-03T07:34:55;101321.72;;;26.20;55.57
39823;BME280;25499;53.958;10.970;2022-08-03T07:37:20;101315.88;;;26.43;54.80
39823;BME280;25499;53.958;10.970;2022-08-03T07:39:45;101305.09;;;26.45;53.98
39823;BME280;25499;53.958;10.970;2022-08-03T07:42:11;101315.09;;;26.56;54.51
39823;BME280;25499;53.958;10.970;2022-08-03T07:44:36;101302.75;;;26.69;52.61
39823;BME280;25499;53.958;10.970;2022-08-03T07:47:03;101298.38;;;26.68;52.25
39823;BME280;25499;53.958;10.970;2022-08-03T07:49:29;101302.81;;;26.96;53.03
39823;BME280;25499;53.958;10.970;2022-08-03T07:51:54;101301.19;;;27.08;51.97
39823;BME280;25499;53.958;10.970;2022-08-03T07:54:38;101298.75;;;27.32;51.49
39823;BME280;25499;53.958;10.970;2022-08-03T07:57:03;101302.72;;;27.54;51.81
39823;BME280;25499;53.958;10.970;2022-08-03T07:59:28;101281.88;;;27.32;50.02
39823;BME280;25499;53.958;10.970;2022-08-03T08:01:53;101282.06;;;27.29;49.69
39823;BME280;25499;53.958;10.970;2022-08-03T08:04:19;101295.75;;;27.51;50.44
39823;BME280;25499;53.958;10.970;2022-08-03T08:06:44;101292.19;;;27.78;50.69
39823;BME280;25499;53.958;10.970;2022-08-03T08:09:09;101281.16;;;27.70;49.70
39823;BME280;25499;53.958;10.970;2022-08-03T08:11:36;101277.94;;;27.65;49.24
39823;BME280;25499;53.958;10.970;2022-08-03T08:14:01;101266.84;;;27.84;48.71
39823;BME280;25499;53.958;10.970;2022-08-03T08:16:28;101274.72;;;28.00;48.29
39823;BME280;25499;53.958;10.970;2022-08-03T08:18:53;101263.16;;;27.99;47.92
39823;BME280;25499;53.958;10.970;2022-08-03T08:21:18;101256.50;;;27.92;47.29
39823;BME280;25499;53.958;10.970;2022-08-03T08:23:43;101264.00;;;28.00;47.43
39823;BME280;25499;53.958;10.970;2022-08-03T08:26:09;101261.94;;;27.90;47.83
39823;BME280;25499;53.958;10.970;2022-08-03T08:28:34;101269.91;;;28.31;48.17
39823;BME280;25499;53.958;10.970;2022-08-03T08:31:00;101265.19;;;28.21;46.96
39823;BME280;25499;53.958;10.970;2022-08-03T08:33:26;101273.56;;;28.55;47.28
39823;BME280;25499;53.958;10.970;2022-08-03T08:35:52;101261.09;;;28.54;46.82
39823;BME280;25499;53.958;10.970;2022-08-03T08:38:17;101259.19;;;28.69;47.18
39823;BME280;25499;53.958;10.970;2022-08-03T08:40:43;101257.25;;;28.45;47.22
39823;BME280;25499;53.958;10.970;2022-08-03T08:43:08;101245.47;;;28.35;47.31
39823;BME280;25499;53.958;10.970;2022-08-03T08:45:33;101260.97;;;28.81;47.49
39823;BME280;25499;53.958;10.970;2022-08-03T08:49:51;101252.75;;;29.22;47.08
39823;BME280;25499;53.958;10.970;2022-08-03T08:52:19;101257.00;;;29.72;46.93
39823;BME280;25499;53.958;10.970;2022-08-03T08:54:48;101254.88;;;29.89;46.38
39823;BME280;25499;53.958;10.970;2022-08-03T08:57:14;101252.16;;;29.78;46.75
39823;BME280;25499;53.958;10.970;2022-08-03T08:59:40;101248.38;;;29.56;46.36
39823;BME280;25499;53.958;10.970;2022-08-03T09:02:08;101255.97;;;29.86;46.27
39823;BME280;25499;53.958;10.970;2022-08-03T09:04:33;101254.78;;;30.02;46.47
39823;BME280;25499;53.958;10.970;2022-08-03T09:07:00;101253.81;;;30.14;46.39
39823;BME280;25499;53.958;10.970;2022-08-03T09:09:25;101258.03;;;30.41;46.24
39823;BME280;25499;53.958;10.970;2022-08-03T09:11:51;101245.41;;;30.30;46.43
39823;BME280;25499;53.958;10.970;2022-08-03T09:14:18;101248.06;;;29.96;45.97
39823;BME280;25499;53.958;10.970;2022-08-03T09:16:57;101241.06;;;29.82;45.82
39823;BME280;25499;53.958;10.970;2022-08-03T09:19:30;101238.38;;;29.93;46.29
39823;BME280;25499;53.958;10.970;2022-08-03T09:24:37;101239.56;;;30.70;45.76
39823;BME280;25499;53.958;10.970;2022-08-03T09:27:10;101240.41;;;31.04;45.58
39823;BME280;25499;53.958;10.970;2022-08-03T09:29:37;101230.78;;;30.45;46.00
39823;BME280;25499;53.958;10.970;2022-08-03T09:32:03;101238.94;;;30.32;45.10
39823;BME280;25499;53.958;10.970;2022-08-03T09:34:29;101239.44;;;30.72;46.19
39823;BME280;25499;53.958;10.970;2022-08-03T09:36:56;101226.75;;;30.62;45.14
39823;BME280;25499;53.958;10.970;2022-08-03T09:39:25;101227.38;;;30.43;45.09
39823;BME280;25499;53.958;10.970;2022-08-03T09:42:05;101231.00;;;30.65;44.66
39823;BME280;25499;53.958;10.970;2022-08-03T09:44:39;101232.09;;;30.74;44.49
39823;BME280;25499;53.958;10.970;2022-08-03T09:47:13;101216.13;;;30.49;43.68
39823;BME280;25499;53.958;10.970;2022-08-03T09:49:40;101232.97;;;30.74;44.52
39823;BME280;25499;53.958;10.970;2022-08-03T09:52:15;101232.53;;;31.13;43.90
39823;BME280;25499;53.958;10.970;2022-08-03T09:54:43;101219.50;;;30.97;43.13
39823;BME280;25499;53.958;10.970;2022-08-03T09:57:26;101219.25;;;31.00;42.91
39823;BME280;25499;53.958;10.970;2022-08-03T09:59:53;101206.03;;;31.08;41.43
39823;BME280;25499;53.958;10.970;2022-08-03T10:02:25;101212.84;;;31.12;41.82
39823;BME280;25499;53.958;10.970;2022-08-03T10:04:53;101214.00;;;31.31;42.11
39823;BME280;25499;53.958;10.970;2022-08-03T10:07:21;101208.97;;;31.37;41.94
39823;BME280;25499;53.958;10.970;2022-08-03T10:10:00;101206.19;;;31.60;41.29
39823;BME280;25499;53.958;10.970;2022-08-03T10:12:26;101215.78;;;31.95;40.75
39823;BME280;25499;53.958;10.970;2022-08-03T10:14:53;101213.88;;;32.07;41.32
39823;BME280;25499;53.958;10.970;2022-08-03T10:17:20;101212.59;;;32.42;41.26
39823;BME280;25499;53.958;10.970;2022-08-03T10:19:46;101208.94;;;31.91;41.17
39823;BME280;25499;53.958;10.970;2022-08-03T10:22:22;101211.06;;;32.08;41.55
39823;BME280;25499;53.958;10.970;2022-08-03T10:24:52;101211.66;;;32.12;41.56
39823;BME280;25499;53.958;10.970;2022-08-03T10:27:22;101210.97;;;31.98;41.90
39823;BME280;25499;53.958;10.970;2022-08-03T10:29:51;101210.47;;;32.35;41.74
39823;BME280;25499;53.958;10.970;2022-08-03T10:32:27;101207.09;;;32.43;42.14
39823;BME280;25499;53.958;10.970;2022-08-03T10:34:59;101213.88;;;32.07;43.15
39823;BME280;25499;53.958;10.970;2022-08-03T10:37:29;101207.63;;;31.85;43.15
39823;BME280;25499;53.958;10.970;2022-08-03T10:39:56;101204.28;;;32.14;42.66
39823;BME280;25499;53.958;10.970;2022-08-03T10:42:23;101204.16;;;32.56;42.63
39823;BME280;25499;53.958;10.970;2022-08-03T10:45:02;101203.00;;;32.59;42.06
39823;BME280;25499;53.958;10.970;2022-08-03T10:47:28;101207.31;;;32.61;41.89
39823;BME280;25499;53.958;10.970;2022-08-03T10:49:55;101199.56;;;32.47;41.92
39823;BME280;25499;53.958;10.970;2022-08-03T10:52:20;101192.91;;;32.10;42.23
39823;BME280;25499;53.958;10.970;2022-08-03T10:54:46;101194.69;;;31.58;43.19
39823;BME280;25499;53.958;10.970;2022-08-03T10:57:50;101199.91;;;31.38;43.73
39823;BME280;25499;53.958;10.970;2022-08-03T11:00:22;101199.00;;;32.12;43.44
39823;BME280;25499;53.958;10.970;2022-08-03T11:03:07;101207.09;;;32.43;42.77
39823;BME280;25499;53.958;10.970;2022-08-03T11:05:47;101194.03;;;32.39;42.61
39823;BME280;25499;53.958;10.970;2022-08-03T11:10:48;101201.94;;;32.61;42.39
39823;BME280;25499;53.958;10.970;2022-08-03T11:13:15;101198.59;;;32.98;42.41
39823;BME280;25499;53.958;10.970;2022-08-03T11:15:43;101202.91;;;33.20;42.17
39823;BME280;25499;53.958;10.970;2022-08-03T11:18:11;101196.34;;;33.23;40.90
39823;BME280;25499;53.958;10.970;2022-08-03T11:23:13;101194.63;;;33.80;40.14
39823;BME280;25499;53.958;10.970;2022-08-03T11:28:35;101202.44;;;33.83;40.91
39823;BME280;25499;53.958;10.970;2022-08-03T11:34:09;101202.88;;;33.40;41.40
39823;BME280;25499;53.958;10.970;2022-08-03T11:39:45;101192.56;;;32.65;41.71
39823;BME280;25499;53.958;10.970;2022-08-03T11:44:49;101202.69;;;32.42;42.12
39823;BME280;25499;53.958;10.970;2022-08-03T11:47:16;101208.81;;;32.85;42.56
39823;BME280;25499;53.958;10.970;2022-08-03T11:49:53;101200.84;;;32.83;41.76
39823;BME280;25499;53.958;10.970;2022-08-03T11:52:19;101192.88;;;32.82;41.81
39823;BME280;25499;53.958;10.970;2022-08-03T11:54:44;101189.28;;;32.00;42.32
39823;BME280;25499;53.958;10.970;2022-08-03T11:57:11;101195.88;;;31.65;43.33
39823;BME280;25499;53.958;10.970;2022-08-03T11:59:36;101207.78;;;32.35;43.82
39823;BME280;25499;53.958;10.970;2022-08-03T12:02:28;101191.84;;;32.63;43.34
39823;BME280;25499;53.958;10.970;2022-08-03T12:04:58;101199.69;;;32.66;42.68
39823;BME280;25499;53.958;10.970;2022-08-03T12:07:28;101198.75;;;32.97;42.06
39823;BME280;25499;53.958;10.970;2022-08-03T12:10:13;101189.06;;;32.84;41.91
39823;BME280;25499;53.958;10.970;2022-08-03T12:12:40;101192.50;;;32.96;41.20
39823;BME280;25499;53.958;10.970;2022-08-03T12:15:07;101184.41;;;32.96;41.19
39823;BME280;25499;53.958;10.970;2022-08-03T12:17:38;101187.38;;;32.43;41.54
39823;BME280;25499;53.958;10.970;2022-08-03T12:20:05;101191.31;;;32.89;41.62
39823;BME280;25499;53.958;10.970;2022-08-03T12:22:31;101177.44;;;32.43;41.29
39823;BME280;25499;53.958;10.970;2022-08-03T12:24:57;101173.38;;;32.18;41.94
39823;BME280;25499;53.958;10.970;2022-08-03T12:27:24;101182.75;;;32.24;41.87
39823;BME280;25499;53.958;10.970;2022-08-03T12:29:52;101188.22;;;32.43;42.97
39823;BME280;25499;53.958;10.970;2022-08-03T12:32:18;101179.56;;;32.09;42.12
39823;BME280;25499;53.958;10.970;2022-08-03T12:34:45;101176.69;;;32.31;41.82
39823;BME280;25499;53.958;10.970;2022-08-03T12:37:11;101186.09;;;32.37;42.62
39823;BME280;25499;53.958;10.970;2022-08-03T12:39:36;101173.53;;;31.95;42.90
39823;BME280;25499;53.958;10.970;2022-08-03T12:42:02;101177.78;;;32.19;43.23
39823;BME280;25499;53.958;10.970;2022-08-03T12:44:32;101180.56;;;32.39;42.56
39823;BME280;25499;53.958;10.970;2022-08-03T12:46:59;101179.22;;;32.23;43.11
39823;BME280;25499;53.958;10.970;2022-08-03T12:49:25;101185.28;;;32.15;43.24
39823;BME280;25499;53.958;10.970;2022-08-03T12:54:18;101180.72;;;32.06;43.53
39823;BME280;25499;53.958;10.970;2022-08-03T12:59:36;101187.84;;;32.58;42.13
39823;BME280;25499;53.958;10.970;2022-08-03T13:02:04;101174.03;;;32.41;42.06
39823;BME280;25499;53.958;10.970;2022-08-03T13:04:32;101187.91;;;32.37;42.12
39823;BME280;25499;53.958;10.970;2022-08-03T13:07:06;101183.69;;;32.44;42.11
39823;BME280;25499;53.958;10.970;2022-08-03T13:09:45;101178.66;;;31.98;42.75
39823;BME280;25499;53.958;10.970;2022-08-03T13:14:49;101179.13;;;31.61;43.99
39823;BME280;25499;53.958;10.970;2022-08-03T13:17:14;101191.69;;;31.72;44.83
39823;BME280;25499;53.958;10.970;2022-08-03T13:19:43;101178.56;;;31.79;43.30
39823;BME280;25499;53.958;10.970;2022-08-03T13:22:10;101184.44;;;31.52;44.08
39823;BME280;25499;53.958;10.970;2022-08-03T13:24:36;101189.56;;;31.55;43.97
39823;BME280;25499;53.958;10.970;2022-08-03T13:27:02;101170.34;;;31.06;43.26
39823;BME280;25499;53.958;10.970;2022-08-03T13:29:29;101178.59;;;31.14;44.36
39823;BME280;25499;53.958;10.970;2022-08-03T13:31:54;101181.75;;;31.19;43.54
39823;BME280;25499;53.958;10.970;2022-08-03T13:34:19;101184.28;;;31.32;44.59
39823;BME280;25499;53.958;10.970;2022-08-03T13:36:45;101180.28;;;31.27;45.31
39823;BME280;25499;53.958;10.970;2022-08-03T13:39:10;101175.16;;;31.23;43.98
39823;BME280;25499;53.958;10.970;2022-08-03T13:41:36;101177.06;;;31.33;44.00
39823;BME280;25499;53.958;10.970;2022-08-03T13:44:01;101167.91;;;31.24;42.88
39823;BME280;25499;53.958;10.970;2022-08-03T13:46:26;101164.81;;;31.08;43.13
39823;BME280;25499;53.958;10.970;2022-08-03T13:48:52;101171.19;;;31.28;44.02
39823;BME280;25499;53.958;10.970;2022-08-03T13:51:17;101170.22;;;31.29;43.61
39823;BME280;25499;53.958;10.970;2022-08-03T13:53:42;101164.25;;;31.25;42.80
39823;BME280;25499;53.958;10.970;2022-08-03T13:56:08;101168.47;;;31.39;42.86
39823;BME280;25499;53.958;10.970;2022-08-03T13:58:33;101149.31;;;31.00;42.76
39823;BME280;25499;53.958;10.970;2022-08-03T14:00:58;101164.41;;;31.12;42.90
39823;BME280;25499;53.958;10.970;2022-08-03T14:03:24;101167.16;;;31.33;43.67
39823;BME280;25499;53.958;10.970;2022-08-03T14:05:49;101150.41;;;31.30;43.39
39823;BME280;25499;53.958;10.970;2022-08-03T14:08:14;101159.88;;;31.45;43.02
39823;BME280;25499;53.958;10.970;2022-08-03T14:10:42;101158.28;;;31.54;42.81
39823;BME280;25499;53.958;10.970;2022-08-03T14:13:09;101158.16;;;31.44;43.57
39823;BME280;25499;53.958;10.970;2022-08-03T14:15:35;101146.72;;;31.31;43.06
39823;BME280;25499;53.958;10.970;2022-08-03T14:18:01;101155.72;;;31.20;43.40
39823;BME280;25499;53.958;10.970;2022-08-03T14:20:26;101151.75;;;30.92;43.87
39823;BME280;25499;53.958;10.970;2022-08-03T14:22:51;101151.03;;;31.01;44.20
39823;BME280;25499;53.958;10.970;2022-08-03T14:25:17;101159.03;;;31.12;44.04
39823;BME280;25499;53.958;10.970;2022-08-03T14:27:43;101156.00;;;31.05;44.42
39823;BME280;25499;53.958;10.970;2022-08-03T14:30:09;101159.28;;;31.09;44.66
39823;BME280;25499;53.958;10.970;2022-08-03T14:32:34;101159.97;;;31.22;44.36
39823;BME280;25499;53.958;10.970;2022-08-03T14:34:59;101165.59;;;31.19;44.24
39823;BME280;25499;53.958;10.970;2022-08-03T14:37:25;101157.13;;;30.92;44.91
39823;BME280;25499;53.958;10.970;2022-08-03T14:39:50;101151.00;;;30.57;44.85
39823;BME280;25499;53.958;10.970;2022-08-03T14:42:15;101160.63;;;30.71;45.93
39823;BME280;25499;53.958;10.970;2022-08-03T14:44:41;101158.41;;;30.76;45.88
39823;BME280;25499;53.958;10.970;2022-08-03T14:47:06;101161.91;;;30.88;46.07
39823;BME280;25499;53.958;10.970;2022-08-03T14:49:31;101156.44;;;30.78;45.88
39823;BME280;25499;53.958;10.970;2022-08-03T14:51:57;101151.78;;;30.80;45.80
39823;BME280;25499;53.958;10.970;2022-08-03T14:54:23;101155.56;;;30.89;46.68
39823;BME280;25499;53.958;10.970;2022-08-03T14:56:48;101154.69;;;30.88;46.46
39823;BME280;25499;53.958;10.970;2022-08-03T14:59:14;101151.88;;;30.90;45.81
39823;BME280;25499;53.958;10.970;2022-08-03T15:01:39;101149.19;;;31.01;46.11
39823;BME280;25499;53.958;10.970;2022-08-03T15:04:04;101137.00;;;30.86;45.15
39823;BME280;25499;53.958;10.970;2022-08-03T15:06:29;101147.59;;;30.99;45.86
39823;BME280;25499;53.958;10.970;2022-08-03T15:08:55;101147.28;;;30.81;46.20
39823;BME280;25499;53.958;10.970;2022-08-03T15:11:20;101138.56;;;31.00;45.61
39823;BME280;25499;53.958;10.970;2022-08-03T15:13:45;101136.59;;;30.91;45.15
39823;BME280;25499;53.958;10.970;2022-08-03T15:16:11;101140.88;;;30.93;45.74
39823;BME280;25499;53.958;10.970;2022-08-03T15:18:36;101145.31;;;30.94;45.86
39823;BME280;25499;53.958;10.970;2022-08-03T15:21:01;101148.34;;;31.01;45.34
39823;BME280;25499;53.958;10.970;2022-08-03T15:23:27;101138.06;;;31.06;45.11
39823;BME280;25499;53.958;10.970;2022-08-03T15:25:52;101147.31;;;31.13;44.39
39823;BME280;25499;53.958;10.970;2022-08-03T15:28:17;101138.38;;;31.13;44.46
39823;BME280;25499;53.958;10.970;2022-08-03T15:30:44;101143.94;;;31.00;45.25
39823;BME280;25499;53.958;10.970;2022-08-03T15:33:09;101145.97;;;31.08;45.62
39823;BME280;25499;53.958;10.970;2022-08-03T15:35:34;101143.03;;;31.11;44.99
39823;BME280;25499;53.958;10.970;2022-08-03T15:38:00;101146.59;;;31.11;44.97
39823;BME280;25499;53.958;10.970;2022-08-03T15:40:25;101142.88;;;31.23;44.10
39823;BME280;25499;53.958;10.970;2022-08-03T15:42:51;101140.00;;;31.04;45.15
39823;BME280;25499;53.958;10.970;2022-08-03T15:45:16;101144.28;;;31.07;45.04
39823;BME280;25499;53.958;10.970;2022-08-03T15:47:41;101134.25;;;31.09;44.73
39823;BME280;25499;53.958;10.970;2022-08-03T15:50:07;101142.44;;;31.07;44.82
39823;BME280;25499;53.958;10.970;2022-08-03T15:52:32;101144.53;;;30.92;45.54
39823;BME280;25499;53.958;10.970;2022-08-03T15:54:58;101136.78;;;30.78;45.17
39823;BME280;25499;53.958;10.970;2022-08-03T15:57:23;101134.81;;;30.68;45.45
39823;BME280;25499;53.958;10.970;2022-08-03T15:59:48;101134.88;;;30.57;46.18
39823;BME280;25499;53.958;10.970;2022-08-03T16:02:14;101135.69;;;30.69;46.00
39823;BME280;25499;53.958;10.970;2022-08-03T16:04:39;101126.22;;;30.54;45.53
39823;BME280;25499;53.958;10.970;2022-08-03T16:07:05;101136.50;;;30.37;45.75
39823;BME280;25499;53.958;10.970;2022-08-03T16:09:30;101138.91;;;30.29;46.32
39823;BME280;25499;53.958;10.970;2022-08-03T16:11:55;101131.47;;;30.21;47.01
39823;BME280;25499;53.958;10.970;2022-08-03T16:14:21;101135.97;;;30.32;46.92
39823;BME280;25499;53.958;10.970;2022-08-03T16:16:46;101140.63;;;30.19;47.36
39823;BME280;25499;53.958;10.970;2022-08-03T16:19:11;101130.38;;;30.01;46.89
39823;BME280;25499;53.958;10.970;2022-08-03T16:21:37;101132.59;;;29.96;47.54
39823;BME280;25499;53.958;10.970;2022-08-03T16:24:33;101141.34;;;29.87;48.28
39823;BME280;25499;53.958;10.970;2022-08-03T16:26:59;101141.59;;;29.84;48.02
39823;BME280;25499;53.958;10.970;2022-08-03T16:29:24;101146.22;;;29.82;47.98
39823;BME280;25499;53.958;10.970;2022-08-03T16:31:50;101137.03;;;29.73;48.13
39823;BME280;25499;53.958;10.970;2022-08-03T16:34:15;101143.03;;;29.65;48.54
39823;BME280;25499;53.958;10.970;2022-08-03T16:36:41;101139.97;;;29.58;49.13
39823;BME280;25499;53.958;10.970;2022-08-03T16:39:06;101140.75;;;29.48;49.24
39823;BME280;25499;53.958;10.970;2022-08-03T16:41:32;101149.53;;;29.50;49.60
39823;BME280;25499;53.958;10.970;2022-08-03T16:43:57;101147.13;;;29.58;49.15
39823;BME280;25499;53.958;10.970;2022-08-03T16:46:22;101147.84;;;29.49;49.02
39823;BME280;25499;53.958;10.970;2022-08-03T16:48:48;101143.00;;;29.54;48.69
39823;BME280;25499;53.958;10.970;2022-08-03T16:51:13;101155.94;;;29.71;48.67
39823;BME280;25499;53.958;10.970;2022-08-03T16:53:38;101148.09;;;29.46;49.08
39823;BME280;25499;53.958;10.970;2022-08-03T16:56:04;101153.56;;;29.44;49.89
39823;BME280;25499;53.958;10.970;2022-08-03T16:58:29;101152.59;;;29.56;49.26
39823;BME280;25499;53.958;10.970;2022-08-03T17:00:55;101149.59;;;29.61;48.90
39823;BME280;25499;53.958;10.970;2022-08-03T17:03:21;101153.38;;;29.70;48.78
39823;BME280;25499;53.958;10.970;2022-08-03T17:05:47;101152.38;;;29.60;49.49
39823;BME280;25499;53.958;10.970;2022-08-03T17:08:14;101152.53;;;29.69;48.97
39823;BME280;25499;53.958;10.970;2022-08-03T17:10:42;101156.44;;;29.65;48.99
39823;BME280;25499;53.958;10.970;2022-08-03T17:13:07;101158.25;;;29.53;49.76
39823;BME280;25499;53.958;10.970;2022-08-03T17:15:33;101159.47;;;29.61;49.13
39823;BME280;25499;53.958;10.970;2022-08-03T17:18:07;101175.16;;;29.43;52.80
39823;BME280;25499;53.958;10.970;2022-08-03T17:20:37;101172.69;;;29.39;50.92
39823;BME280;25499;53.958;10.970;2022-08-03T17:23:27;101183.56;;;29.38;52.46
39823;BME280;25499;53.958;10.970;2022-08-03T17:25:48;101177.03;;;29.29;52.28
39823;BME280;25499;53.958;10.970;2022-08-03T17:28:14;101168.66;;;29.10;51.54
39823;BME280;25499;53.958;10.970;2022-08-03T17:30:40;101177.31;;;29.13;51.83
39823;BME280;25499;53.958;10.970;2022-08-03T17:33:24;101176.31;;;29.27;51.57
39823;BME280;25499;53.958;10.970;2022-08-03T17:35:50;101178.16;;;29.14;52.27
39823;BME280;25499;53.958;10.970;2022-08-03T17:38:21;101173.72;;;29.01;53.00
39823;BME280;25499;53.958;10.970;2022-08-03T17:40:47;101180.63;;;28.93;54.24
39823;BME280;25499;53.958;10.970;2022-08-03T17:43:16;101182.91;;;28.86;54.69
39823;BME280;25499;53.958;10.970;2022-08-03T17:45:41;101185.00;;;28.70;56.13
39823;BME280;25499;53.958;10.970;2022-08-03T17:48:07;101183.75;;;28.62;56.47
39823;BME280;25499;53.958;10.970;2022-08-03T17:50:43;101189.59;;;28.55;56.90
39823;BME280;25499;53.958;10.970;2022-08-03T17:53:14;101185.91;;;28.57;55.92
39823;BME280;25499;53.958;10.970;2022-08-03T17:55:43;101186.00;;;28.56;55.66
39823;BME280;25499;53.958;10.970;2022-08-03T17:58:36;101179.03;;;28.53;55.28
39823;BME280;25499;53.958;10.970;2022-08-03T18:01:02;101194.69;;;28.46;55.80
39823;BME280;25499;53.958;10.970;2022-08-03T18:03:50;101183.97;;;28.34;56.17
39823;BME280;25499;53.958;10.970;2022-08-03T18:06:19;101188.69;;;28.17;57.01
39823;BME280;25499;53.958;10.970;2022-08-03T18:08:50;101190.75;;;28.01;57.97
39823;BME280;25499;53.958;10.970;2022-08-03T18:11:17;101199.31;;;27.93;58.42
39823;BME280;25499;53.958;10.970;2022-08-03T18:19:01;101194.41;;;27.60;60.75
39823;BME280;25499;53.958;10.970;2022-08-03T18:21:26;101205.22;;;27.45;61.29
39823;BME280;25499;53.958;10.970;2022-08-03T18:23:54;101205.59;;;27.39;61.31
39823;BME280;25499;53.958;10.970;2022-08-03T18:26:21;101208.81;;;27.31;60.30
39823;BME280;25499;53.958;10.970;2022-08-03T18:28:47;101209.16;;;26.98;60.28
39823;BME280;25499;53.958;10.970;2022-08-03T18:31:14;101213.72;;;27.10;59.91